Time;durP1;ratioP1;P1;durP2;ratioP2;P2;SDS_P1;SDS_P2;PMS_P1;PMS_P2;Temp;Humidity;BMP_temperature;BMP_pressure;BME280_temperature;BME280_humidity;BME280_pressure;Samples;Min_cycle;Max_cycle;Signal;HPM_P1;HPM_P2
2022/05/05 00:00:18;;;;;;;1.48;1.30;;;19.60;47.40;;;;;;5070337;28;43789;-61
2022/05/05 00:02:45;;;;;;;1.40;1.30;;;19.60;47.50;;;;;;5076851;28;43868;-61
2022/05/05 00:05:12;;;;;;;1.80;1.42;;;19.60;47.40;;;;;;5080915;28;43491;-61
2022/05/05 00:07:40;;;;;;;1.27;1.17;;;19.60;47.50;;;;;;5077877;28;43510;-61
2022/05/05 00:15:41;;;;;;;2.10;1.10;;;19.50;47.50;;;;;;5076787;28;43404;-61
2022/05/05 00:18:10;;;;;;;1.30;1.13;;;19.50;47.50;;;;;;5073151;28;43487;-61
2022/05/05 00:20:37;;;;;;;1.30;1.20;;;19.50;47.50;;;;;;5077550;28;44662;-60
2022/05/05 00:23:05;;;;;;;1.08;1.05;;;19.50;47.50;;;;;;5078127;27;43467;-61
2022/05/05 00:25:32;;;;;;;1.75;1.45;;;19.40;47.40;;;;;;5090232;27;43439;-62
2022/05/05 00:28:00;;;;;;;1.13;1.00;;;19.40;47.50;;;;;;5070535;28;43393;-62
2022/05/05 00:30:27;;;;;;;1.10;1.10;;;19.40;47.50;;;;;;5077977;28;44163;-61
2022/05/05 00:32:54;;;;;;;1.60;1.50;;;19.40;47.50;;;;;;5078999;28;44044;-61
2022/05/05 00:35:22;;;;;;;1.67;1.30;;;19.40;47.60;;;;;;5075848;28;43629;-61
2022/05/05 00:37:49;;;;;;;1.60;1.30;;;19.40;47.60;;;;;;5069399;28;43421;-61
2022/05/05 00:40:17;;;;;;;1.92;1.30;;;19.40;47.60;;;;;;5076173;28;44044;-61
2022/05/05 00:42:44;;;;;;;1.50;1.38;;;19.40;47.60;;;;;;5077907;28;43662;-61
2022/05/05 00:45:12;;;;;;;1.50;1.40;;;19.40;47.60;;;;;;5070551;27;43403;-61
2022/05/05 00:47:39;;;;;;;1.63;1.52;;;19.30;47.50;;;;;;5068201;28;43463;-62
2022/05/05 00:50:07;;;;;;;1.58;1.20;;;19.30;47.50;;;;;;5075643;28;45791;-61
2022/05/05 00:52:35;;;;;;;1.52;1.30;;;19.30;47.50;;;;;;5077407;28;43379;-61
2022/05/05 00:55:02;;;;;;;1.75;1.30;;;19.30;47.60;;;;;;5070838;27;43378;-61
2022/05/05 00:57:30;;;;;;;1.40;1.30;;;19.30;47.60;;;;;;5073949;28;43468;-61
2022/05/05 01:00:01;;;;;;;2.03;1.20;;;19.30;47.60;;;;;;5081904;28;43751;-61
2022/05/05 01:02:28;;;;;;;1.40;1.30;;;19.20;47.50;;;;;;5074579;28;43486;-61
2022/05/05 01:04:56;;;;;;;1.60;1.30;;;19.20;47.60;;;;;;5074046;28;43490;-61
2022/05/05 01:07:25;;;;;;;1.40;1.30;;;19.20;47.60;;;;;;5074175;28;43443;-61
2022/05/05 01:09:52;;;;;;;1.33;1.20;;;19.20;47.50;;;;;;5082569;28;43788;-61
2022/05/05 01:12:23;;;;;;;2.33;1.10;;;19.20;47.60;;;;;;5075754;28;44063;-61
2022/05/05 01:14:50;;;;;;;2.88;1.25;;;19.20;47.50;;;;;;5072575;28;43493;-61
2022/05/05 01:17:18;;;;;;;1.75;1.40;;;19.20;47.60;;;;;;5073740;28;43452;-61
2022/05/05 01:19:46;;;;;;;1.48;1.27;;;19.20;47.60;;;;;;5079738;27;44262;-61
2022/05/05 01:22:15;;;;;;;1.85;1.30;;;19.20;47.60;;;;;;5076158;28;43864;-61
2022/05/05 01:30:14;;;;;;;1.30;1.20;;;19.10;47.60;;;;;;5073167;28;44758;-62
2022/05/05 01:32:42;;;;;;;1.83;1.33;;;19.10;47.70;;;;;;5072873;28;43779;-61
2022/05/05 01:35:09;;;;;;;1.10;1.02;;;19.10;47.60;;;;;;5075936;28;43550;-61
2022/05/05 01:37:36;;;;;;;1.50;1.27;;;19.10;47.60;;;;;;5078591;27;43919;-61
2022/05/05 01:40:04;;;;;;;1.83;1.48;;;19.10;47.70;;;;;;5074083;28;43744;-61
2022/05/05 01:42:32;;;;;;;1.85;1.50;;;19.00;47.60;;;;;;5064708;28;43760;-62
2022/05/05 01:44:59;;;;;;;1.27;1.17;;;19.00;47.60;;;;;;5075558;28;43484;-61
2022/05/05 01:47:26;;;;;;;1.20;1.10;;;19.00;47.60;;;;;;5078352;28;43443;-61
2022/05/05 01:49:57;;;;;;;1.30;1.20;;;19.00;47.60;;;;;;5073313;28;44840;-61
2022/05/05 01:52:27;;;;;;;1.63;1.45;;;19.00;47.60;;;;;;5069021;27;43793;-61
2022/05/05 01:54:54;;;;;;;1.65;1.55;;;19.00;47.70;;;;;;5072895;28;43436;-61
2022/05/05 01:57:22;;;;;;;2.83;1.75;;;19.00;47.60;;;;;;5075946;28;43444;-62
2022/05/05 01:59:49;;;;;;;1.38;1.27;;;19.00;47.60;;;;;;5074927;27;44973;-61
2022/05/05 02:02:17;;;;;;;1.92;1.50;;;19.00;47.60;;;;;;5072275;28;43975;-61
2022/05/05 02:04:45;;;;;;;1.95;1.30;;;19.00;47.60;;;;;;5083365;28;43767;-61
2022/05/05 02:07:12;;;;;;;1.77;1.30;;;18.90;47.60;;;;;;5074104;28;43514;-61
2022/05/05 02:09:39;;;;;;;2.28;1.73;;;18.90;47.60;;;;;;5072810;28;46176;-61
2022/05/05 02:12:08;;;;;;;1.35;1.25;;;19.00;47.60;;;;;;5082148;28;43842;-61
2022/05/05 02:14:35;;;;;;;1.75;1.45;;;19.00;47.70;;;;;;5081822;27;43461;-61
2022/05/05 02:17:03;;;;;;;2.08;1.50;;;18.90;47.70;;;;;;5072997;28;43447;-61
2022/05/05 02:19:30;;;;;;;2.13;1.27;;;18.90;47.60;;;;;;5070916;28;44970;-61
2022/05/05 02:21:58;;;;;;;1.33;1.20;;;18.90;47.70;;;;;;5080900;28;43423;-62
2022/05/05 02:24:26;;;;;;;1.35;1.20;;;18.90;47.70;;;;;;5079697;28;43561;-61
2022/05/05 02:26:54;;;;;;;1.55;1.30;;;18.80;47.90;;;;;;5071762;28;43580;-62
2022/05/05 02:29:21;;;;;;;1.70;1.42;;;18.80;47.70;;;;;;5070495;28;44983;-62
2022/05/05 02:31:49;;;;;;;1.45;1.30;;;18.80;47.60;;;;;;5069200;28;44099;-61
2022/05/05 02:34:16;;;;;;;1.40;1.30;;;18.80;47.70;;;;;;5078928;28;43471;-61
2022/05/05 02:39:30;;;;;;;1.40;1.30;;;18.80;47.70;;;;;;5070247;28;44768;-61
2022/05/05 02:41:57;;;;;;;1.40;1.30;;;18.80;47.70;;;;;;5082159;27;43355;-61
2022/05/05 02:44:26;;;;;;;1.30;1.20;;;18.80;47.70;;;;;;5070767;28;43403;-61
2022/05/05 02:46:53;;;;;;;1.40;1.30;;;18.80;47.70;;;;;;5075729;28;43461;-60
2022/05/05 02:49:21;;;;;;;1.73;1.50;;;18.70;47.70;;;;;;5072655;28;44050;-62
2022/05/05 02:51:48;;;;;;;1.98;1.55;;;18.80;47.70;;;;;;5084813;28;43493;-61
2022/05/05 02:57:02;;;;;;;2.10;1.13;;;18.70;47.70;;;;;;5072836;28;43462;-62
2022/05/05 02:59:29;;;;;;;1.20;1.10;;;18.70;47.70;;;;;;5083987;27;44878;-62
2022/05/05 03:01:57;;;;;;;1.42;1.33;;;18.70;47.70;;;;;;5080915;28;43363;-62
2022/05/05 03:04:25;;;;;;;1.80;1.27;;;18.70;47.70;;;;;;5076418;28;43432;-62
2022/05/05 03:06:52;;;;;;;1.20;1.10;;;18.70;47.70;;;;;;5072661;28;44195;-62
2022/05/05 03:09:19;;;;;;;1.17;1.08;;;18.70;47.70;;;;;;5085992;28;43807;-61
2022/05/05 03:11:47;;;;;;;1.38;1.27;;;18.70;47.70;;;;;;5078995;28;43420;-60
2022/05/05 03:14:14;;;;;;;1.23;1.13;;;18.70;47.80;;;;;;5073965;28;43395;-62
2022/05/05 03:16:42;;;;;;;1.40;1.20;;;18.70;47.70;;;;;;5072366;27;43482;-60
2022/05/05 03:19:10;;;;;;;1.63;1.42;;;18.70;47.70;;;;;;5084883;28;44025;-61
2022/05/05 03:21:37;;;;;;;1.50;1.40;;;18.60;47.70;;;;;;5078995;28;43362;-62
2022/05/05 03:24:05;;;;;;;1.48;1.30;;;18.60;47.70;;;;;;5074301;28;43476;-61
2022/05/05 03:26:33;;;;;;;1.50;1.40;;;18.60;47.70;;;;;;5070156;27;43593;-61
2022/05/05 03:29:00;;;;;;;1.75;1.48;;;18.60;47.70;;;;;;5083697;28;44654;-60
2022/05/05 03:31:27;;;;;;;1.23;1.13;;;18.60;47.70;;;;;;5074399;27;43440;-61
2022/05/05 03:33:55;;;;;;;1.30;1.20;;;18.60;47.80;;;;;;5073051;28;43563;-61
2022/05/05 03:36:23;;;;;;;1.42;1.20;;;18.60;47.70;;;;;;5084580;27;43514;-61
2022/05/05 03:38:51;;;;;;;2.13;1.30;;;18.60;47.80;;;;;;5082179;28;43854;-62
2022/05/05 03:41:19;;;;;;;1.33;1.23;;;18.60;47.70;;;;;;5072660;28;43458;-61
2022/05/05 03:43:47;;;;;;;1.33;1.10;;;18.60;47.80;;;;;;5072970;28;43463;-61
2022/05/05 03:46:14;;;;;;;1.40;1.30;;;18.60;47.70;;;;;;5080311;27;43501;-61
2022/05/05 03:48:42;;;;;;;1.25;1.13;;;18.60;47.80;;;;;;5081541;28;44060;-61
2022/05/05 03:51:09;;;;;;;1.77;1.13;;;18.50;47.80;;;;;;5078045;28;43421;-61
2022/05/05 03:53:37;;;;;;;1.40;1.30;;;18.50;47.80;;;;;;5071478;28;43462;-61
2022/05/05 03:56:05;;;;;;;1.58;1.30;;;18.50;47.70;;;;;;5081153;27;43502;-62
2022/05/05 03:58:32;;;;;;;1.35;1.25;;;18.50;47.80;;;;;;5080579;27;45284;-61
2022/05/05 04:01:00;;;;;;;1.45;1.35;;;18.50;47.80;;;;;;5071953;28;43712;-62
2022/05/05 04:03:30;;;;;;;1.58;1.27;;;18.50;47.80;;;;;;5069527;28;43462;-61
2022/05/05 04:06:03;;;;;;;1.75;1.10;;;18.50;47.80;;;;;;5072292;28;43646;-61
2022/05/05 04:08:31;;;;;;;1.55;1.38;;;18.50;47.80;;;;;;5074293;28;44697;-62
2022/05/05 04:10:59;;;;;;;1.20;1.10;;;18.50;47.80;;;;;;5084165;27;43511;-61
2022/05/05 04:13:26;;;;;;;1.55;1.30;;;18.50;47.70;;;;;;5079327;28;43498;-62
2022/05/05 04:15:54;;;;;;;1.27;1.10;;;18.50;47.80;;;;;;5079912;28;43539;-60
2022/05/05 04:18:21;;;;;;;1.85;1.58;;;18.50;47.80;;;;;;5075242;28;44058;-61
2022/05/05 04:20:49;;;;;;;1.80;1.45;;;18.50;47.80;;;;;;5069189;28;43742;-61
2022/05/05 04:23:16;;;;;;;1.40;1.30;;;18.50;47.80;;;;;;5082661;27;43411;-61
2022/05/05 04:26:05;;;;;;;1.45;1.30;;;18.40;47.80;;;;;;5080781;27;43561;-61
2022/05/05 04:28:33;;;;;;;1.27;1.17;;;18.50;47.80;;;;;;5071685;28;45043;-61
2022/05/05 04:31:00;;;;;;;1.63;1.30;;;18.40;47.70;;;;;;5070074;28;43780;-61
2022/05/05 04:33:28;;;;;;;1.23;1.13;;;18.50;47.80;;;;;;5082030;28;43504;-61
2022/05/05 04:35:56;;;;;;;1.55;1.40;;;18.40;47.80;;;;;;5077829;28;43454;-61
2022/05/05 04:38:23;;;;;;;1.23;1.13;;;18.40;47.70;;;;;;5070123;28;44993;-60
2022/05/05 04:40:50;;;;;;;1.92;1.30;;;18.40;47.80;;;;;;5081557;28;43487;-62
2022/05/05 04:43:18;;;;;;;1.67;1.58;;;18.40;47.80;;;;;;5079279;28;43526;-61
2022/05/05 04:45:45;;;;;;;1.50;1.40;;;18.40;47.90;;;;;;5069987;28;43476;-61
2022/05/05 04:48:13;;;;;;;1.77;1.40;;;18.40;47.90;;;;;;5068642;28;45100;-61
2022/05/05 04:50:40;;;;;;;1.48;1.20;;;18.40;47.90;;;;;;5081124;28;44106;-61
2022/05/05 04:53:08;;;;;;;1.73;1.10;;;18.40;47.90;;;;;;5079509;28;43463;-60
2022/05/05 04:55:35;;;;;;;1.38;1.27;;;18.40;48.00;;;;;;5073413;28;43462;-60
2022/05/05 04:58:03;;;;;;;2.90;1.40;;;18.30;47.90;;;;;;5067882;28;43823;-61
2022/05/05 05:00:30;;;;;;;2.17;1.50;;;18.30;48.00;;;;;;5079017;28;43701;-61
2022/05/05 05:02:59;;;;;;;2.38;1.40;;;18.30;48.00;;;;;;5078448;28;44043;-61
2022/05/05 05:05:26;;;;;;;1.17;1.15;;;18.30;48.00;;;;;;5071516;27;43457;-60
2022/05/05 05:07:54;;;;;;;1.85;1.35;;;18.30;48.00;;;;;;5078856;27;43767;-61
2022/05/05 05:10:21;;;;;;;1.40;1.23;;;18.30;48.00;;;;;;5078992;28;43557;-61
2022/05/05 05:12:48;;;;;;;1.92;1.40;;;18.30;48.00;;;;;;5077297;28;43486;-61
2022/05/05 05:15:16;;;;;;;2.03;1.30;;;18.30;48.00;;;;;;5069360;28;43451;-61
2022/05/05 05:17:44;;;;;;;1.50;1.40;;;18.30;48.00;;;;;;5078079;28;43779;-61
2022/05/05 05:20:12;;;;;;;1.23;1.15;;;18.30;48.00;;;;;;5081704;27;43529;-61
2022/05/05 05:22:39;;;;;;;1.25;1.10;;;18.30;48.10;;;;;;5076928;28;43428;-62
2022/05/05 05:25:07;;;;;;;2.63;1.30;;;18.30;48.20;;;;;;5067778;28;43502;-61
2022/05/05 05:27:35;;;;;;;1.48;1.10;;;18.30;48.20;;;;;;5077117;28;44658;-61
2022/05/05 05:30:08;;;;;;;2.15;1.63;;;18.20;48.20;;;;;;5077358;28;43429;-61
2022/05/05 05:32:36;;;;;;;1.60;1.10;;;18.20;48.20;;;;;;5075352;28;43476;-60
2022/05/05 05:35:04;;;;;;;1.73;1.35;;;18.20;48.20;;;;;;5067132;28;43474;-61
2022/05/05 05:37:32;;;;;;;1.27;1.27;;;18.20;48.30;;;;;;5075218;28;44130;-61
2022/05/05 05:39:59;;;;;;;1.60;1.17;;;18.20;48.20;;;;;;5069883;27;43478;-61
2022/05/05 05:42:26;;;;;;;2.53;1.30;;;18.20;48.20;;;;;;5072218;28;43494;-61
2022/05/05 05:44:54;;;;;;;2.60;1.38;;;18.20;48.30;;;;;;5075708;28;43454;-60
2022/05/05 05:47:22;;;;;;;1.20;1.10;;;18.30;48.30;;;;;;5078769;28;44775;-60
2022/05/05 05:49:49;;;;;;;3.17;1.35;;;18.20;48.30;;;;;;5074498;28;43478;-61
2022/05/05 05:52:17;;;;;;;1.52;1.20;;;18.20;48.30;;;;;;5070029;27;43556;-61
2022/05/05 05:54:44;;;;;;;1.50;1.40;;;18.20;48.30;;;;;;5073109;28;43513;-61
2022/05/05 05:57:18;;;;;;;1.20;1.10;;;18.20;48.40;;;;;;5076137;28;45300;-61
2022/05/05 05:59:45;;;;;;;1.88;1.27;;;18.20;48.30;;;;;;5075510;27;43470;-61
2022/05/05 06:04:58;;;;;;;1.30;1.20;;;18.20;48.30;;;;;;5078930;28;43568;-60
2022/05/05 06:07:29;;;;;;;1.30;1.20;;;18.20;48.20;;;;;;5076426;28;43839;-62
2022/05/05 06:09:56;;;;;;;1.57;1.40;;;18.20;48.30;;;;;;5064221;28;43756;-61
2022/05/05 06:12:24;;;;;;;1.52;1.20;;;18.20;48.30;;;;;;5073707;28;43549;-61
2022/05/05 06:14:51;;;;;;;1.33;1.20;;;18.20;48.30;;;;;;5082485;28;44054;-61
2022/05/05 06:17:19;;;;;;;1.67;1.10;;;18.20;48.30;;;;;;5075031;28;45122;-61
2022/05/05 06:19:46;;;;;;;1.55;1.35;;;18.30;48.40;;;;;;5071642;27;43675;-61
2022/05/05 06:22:14;;;;;;;1.40;1.10;;;18.20;48.30;;;;;;5081595;28;43490;-61
2022/05/05 06:24:41;;;;;;;1.27;1.17;;;18.20;48.30;;;;;;5078137;28;43443;-61
2022/05/05 06:27:09;;;;;;;1.30;1.20;;;18.20;48.30;;;;;;5074628;28;44712;-61
2022/05/05 06:29:36;;;;;;;1.83;1.20;;;18.20;48.30;;;;;;5069395;28;43362;-62
2022/05/05 06:32:04;;;;;;;2.50;1.35;;;18.20;48.30;;;;;;5072742;28;43474;-60
2022/05/05 06:34:32;;;;;;;1.42;1.30;;;18.20;48.30;;;;;;5076731;28;43581;-61
2022/05/05 06:36:59;;;;;;;1.70;1.15;;;18.20;48.30;;;;;;5074105;28;43787;-62
2022/05/05 06:39:27;;;;;;;1.30;1.20;;;18.20;48.20;;;;;;5072188;28;43446;-61
2022/05/05 06:41:55;;;;;;;1.42;1.00;;;18.20;48.20;;;;;;5073949;28;43368;-61
2022/05/05 06:44:25;;;;;;;;;;;18.20;48.20;;;;;;5077022;27;43989;-61
2022/05/05 06:46:54;;;;;;;1.02;0.98;;;18.20;48.20;;;;;;5073576;28;44912;-62
2022/05/05 06:49:22;;;;;;;1.20;1.10;;;18.20;48.30;;;;;;5063355;28;43540;-61
2022/05/05 06:51:50;;;;;;;1.55;1.23;;;18.20;48.30;;;;;;5096722;27;43514;-61
2022/05/05 06:54:18;;;;;;;1.88;1.30;;;18.20;48.20;;;;;;5071849;28;43707;-60
2022/05/05 06:56:45;;;;;;;1.88;1.08;;;18.20;48.20;;;;;;5071464;27;44690;-61
2022/05/05 06:59:12;;;;;;;1.95;1.48;;;18.20;48.30;;;;;;5080318;28;44019;-60
2022/05/05 07:01:52;;;;;;;1.08;1.00;;;18.20;48.30;;;;;;5078602;28;43533;-60
2022/05/05 07:07:14;;;;;;;1.30;1.20;;;18.20;48.40;;;;;;5074122;27;43802;-59
2022/05/05 07:12:30;;;;;;;3.90;2.40;;;18.20;48.50;;;;;;5070581;28;43420;-61
2022/05/05 07:14:58;;;;;;;4.40;2.63;;;18.20;48.60;;;;;;5068840;28;43447;-61
2022/05/05 07:17:26;;;;;;;3.63;2.40;;;18.20;48.80;;;;;;5072781;28;44898;-61
2022/05/05 07:19:54;;;;;;;3.72;1.90;;;18.20;48.50;;;;;;5076139;27;43765;-61
2022/05/05 07:22:22;;;;;;;2.25;2.05;;;18.30;48.60;;;;;;5072744;27;43391;-62
2022/05/05 07:24:49;;;;;;;1.95;1.77;;;18.30;48.50;;;;;;5071138;28;43442;-60
2022/05/05 07:27:17;;;;;;;3.58;1.90;;;18.40;48.50;;;;;;5079678;28;45135;-61
2022/05/05 07:29:45;;;;;;;1.65;1.52;;;18.60;48.60;;;;;;5074479;28;43664;-61
2022/05/05 07:32:12;;;;;;;2.42;1.80;;;18.80;48.40;;;;;;5076274;28;43495;-61
2022/05/05 07:34:40;;;;;;;5.07;1.98;;;19.10;48.40;;;;;;5074373;28;43501;-61
2022/05/05 07:37:07;;;;;;;3.85;2.05;;;19.40;48.20;;;;;;5085163;28;43753;-62
2022/05/05 07:39:35;;;;;;;3.72;2.10;;;19.70;47.90;;;;;;5076539;27;43694;-61
2022/05/05 07:42:03;;;;;;;4.00;2.05;;;19.90;47.60;;;;;;5075810;27;43427;-61
2022/05/05 07:44:30;;;;;;;3.20;1.90;;;20.30;47.30;;;;;;5063988;28;43459;-60
2022/05/05 07:46:58;;;;;;;5.68;2.10;;;20.50;46.90;;;;;;5084068;28;44958;-60
2022/05/05 07:49:25;;;;;;;6.65;2.20;;;20.80;46.60;;;;;;5075770;28;43745;-61
2022/05/05 07:51:53;;;;;;;4.18;1.92;;;21.10;46.40;;;;;;5066423;28;43403;-61
2022/05/05 07:54:42;;;;;;;3.40;1.95;;;21.30;46.00;;;;;;5065841;28;43461;-60
2022/05/05 07:57:12;;;;;;;4.35;2.00;;;21.50;46.00;;;;;;5076493;28;44717;-60
2022/05/05 07:59:40;;;;;;;3.72;1.90;;;21.70;45.60;;;;;;5075125;28;43973;-60
2022/05/05 08:02:09;;;;;;;3.80;1.85;;;21.80;45.30;;;;;;5070849;27;43512;-59
2022/05/05 08:04:37;;;;;;;6.80;1.85;;;21.90;45.20;;;;;;5075000;28;43638;-61
2022/05/05 08:07:04;;;;;;;2.83;1.77;;;21.90;45.10;;;;;;5077349;28;43858;-61
2022/05/05 08:09:32;;;;;;;2.70;1.40;;;21.90;45.00;;;;;;5075627;27;44161;-61
2022/05/05 08:12:19;;;;;;;2.63;1.50;;;21.90;44.90;;;;;;5067347;28;43403;-60
2022/05/05 08:14:47;;;;;;;7.47;1.88;;;21.90;44.90;;;;;;5079823;28;43427;-61
2022/05/05 08:17:14;;;;;;;5.38;1.83;;;21.90;44.90;;;;;;5077124;28;44061;-62
2022/05/05 08:19:42;;;;;;;6.55;2.00;;;21.80;45.10;;;;;;5070913;28;43473;-61
2022/05/05 08:22:09;;;;;;;6.00;1.70;;;21.80;45.40;;;;;;5084270;28;43496;-62
2022/05/05 08:30:09;;;;;;;4.15;1.50;;;21.80;45.80;;;;;;5061850;28;43666;-61
2022/05/05 08:32:37;;;;;;;5.60;1.90;;;21.80;45.90;;;;;;5076749;28;43451;-62
2022/05/05 08:35:04;;;;;;;4.43;1.70;;;21.90;46.00;;;;;;5079675;27;43454;-61
2022/05/05 08:37:32;;;;;;;8.88;1.90;;;21.90;45.90;;;;;;5076048;28;44671;-61
2022/05/05 08:39:59;;;;;;;12.40;2.10;;;21.90;45.80;;;;;;5068344;28;43759;-62
2022/05/05 08:42:27;;;;;;;5.63;1.60;;;22.00;46.00;;;;;;5074659;27;43419;-61
2022/05/05 08:44:54;;;;;;;6.60;1.80;;;22.00;45.80;;;;;;5073789;27;43503;-61
2022/05/05 08:47:24;;;;;;;4.15;1.60;;;22.00;45.80;;;;;;5071134;28;44323;-60
2022/05/05 08:49:59;;;;;;;6.28;1.52;;;22.10;45.50;;;;;;5074980;28;43987;-60
2022/05/05 08:52:35;;;;;;;3.42;1.35;;;22.00;45.40;;;;;;5078320;28;43403;-61
2022/05/05 08:55:04;;;;;;;4.72;1.55;;;22.00;45.40;;;;;;5075280;28;43517;-61
2022/05/05 08:57:31;;;;;;;3.85;1.45;;;21.90;45.50;;;;;;5077095;27;43822;-61
2022/05/05 08:59:59;;;;;;;3.40;1.50;;;21.90;45.50;;;;;;5076777;28;43342;-61
2022/05/05 09:02:26;;;;;;;5.15;1.42;;;21.90;45.50;;;;;;5076903;28;43439;-61
2022/05/05 09:04:53;;;;;;;2.60;1.35;;;21.80;45.60;;;;;;5073985;28;43523;-60
2022/05/05 09:07:22;;;;;;;1.95;1.33;;;21.80;45.60;;;;;;5074588;28;45145;-61
2022/05/05 09:09:50;;;;;;;3.95;1.77;;;21.80;45.60;;;;;;5081516;28;43703;-62
2022/05/05 09:12:19;;;;;;;3.78;1.50;;;21.70;45.60;;;;;;5075349;28;43449;-60
2022/05/05 09:14:54;;;;;;;4.13;1.33;;;21.70;45.70;;;;;;5064483;28;44004;-61
2022/05/05 09:17:28;;;;;;;1.40;1.30;;;21.70;45.80;;;;;;5072916;28;43641;-61
2022/05/05 09:19:56;;;;;;;2.25;1.27;;;21.70;45.80;;;;;;5080224;28;43549;-61
2022/05/05 09:22:27;;;;;;;3.50;1.50;;;21.70;45.80;;;;;;5074235;28;43405;-61
2022/05/05 09:24:57;;;;;;;5.47;1.30;;;21.60;45.90;;;;;;5064164;28;44073;-60
2022/05/05 09:27:29;;;;;;;3.33;1.30;;;21.60;46.00;;;;;;5080143;27;44063;-60
2022/05/05 09:30:09;;;;;;;3.05;1.30;;;21.50;46.00;;;;;;5076936;28;43489;-60
2022/05/05 09:32:42;;;;;;;7.18;1.40;;;21.50;46.10;;;;;;5065386;28;43413;-60
2022/05/05 09:35:10;;;;;;;3.38;1.20;;;21.50;46.10;;;;;;5075624;28;43421;-61
2022/05/05 09:37:44;;;;;;;2.58;1.40;;;21.40;46.10;;;;;;5079172;27;44978;-61
2022/05/05 09:40:17;;;;;;;2.58;1.30;;;21.50;46.20;;;;;;5076770;27;43441;-61
2022/05/05 09:42:47;;;;;;;3.42;1.27;;;21.40;46.10;;;;;;5067887;28;43450;-60
2022/05/05 09:45:37;;;;;;;2.72;1.50;;;21.40;46.20;;;;;;5078217;28;43498;-61
2022/05/05 09:48:16;;;;;;;3.40;1.40;;;21.40;46.20;;;;;;5069176;28;43913;-61
2022/05/05 09:50:52;;;;;;;2.97;1.75;;;21.40;46.30;;;;;;5071802;28;43720;-62
2022/05/05 09:59:30;;;;;;;4.10;1.80;;;21.40;46.60;;;;;;5072537;28;43792;-61
2022/05/05 10:05:15;;;;;;;2.10;1.58;;;21.30;46.60;;;;;;5073014;28;43493;-60
2022/05/05 10:07:45;;;;;;;1.85;1.40;;;21.40;46.80;;;;;;5077465;27;43457;-61
2022/05/05 10:10:16;;;;;;;1.95;1.70;;;21.40;46.90;;;;;;5066467;28;43752;-62
2022/05/05 10:12:45;;;;;;;2.03;1.70;;;21.50;46.80;;;;;;5060595;28;43452;-60
2022/05/05 10:15:15;;;;;;;2.05;1.48;;;21.50;46.60;;;;;;5065552;28;43481;-61
2022/05/05 10:17:45;;;;;;;1.70;1.60;;;21.60;46.50;;;;;;5062248;28;43536;-61
2022/05/05 10:20:14;;;;;;;1.80;1.40;;;21.70;46.50;;;;;;5067477;28;43940;-60
2022/05/05 10:22:50;;;;;;;3.03;1.75;;;21.70;46.40;;;;;;5064315;28;44023;-61
2022/05/05 10:25:26;;;;;;;1.55;1.45;;;21.80;46.40;;;;;;5064950;28;43444;-60
2022/05/05 10:27:57;;;;;;;1.55;1.45;;;21.90;46.40;;;;;;5067557;28;43585;-60
2022/05/05 10:30:35;;;;;;;1.90;1.73;;;21.90;46.40;;;;;;5063736;28;43858;-61
2022/05/05 10:33:08;;;;;;;2.55;1.80;;;22.00;46.30;;;;;;5065015;28;43459;-60
2022/05/05 10:35:47;;;;;;;1.85;1.60;;;22.00;46.40;;;;;;5063214;27;43459;-60
2022/05/05 10:38:41;;;;;;;3.95;1.80;;;22.10;46.30;;;;;;5069948;28;43565;-61
2022/05/05 10:41:30;;;;;;;1.98;1.80;;;22.20;46.20;;;;;;5071984;28;44048;-61
2022/05/05 10:44:16;;;;;;;1.90;1.77;;;22.20;46.30;;;;;;5053817;28;43415;-61
2022/05/05 10:46:54;;;;;;;3.45;1.70;;;22.30;46.20;;;;;;5072955;28;43439;-61
2022/05/05 10:49:47;;;;;;;2.00;1.50;;;22.40;46.10;;;;;;5070919;28;43443;-61
2022/05/05 10:52:18;;;;;;;3.42;1.70;;;22.50;45.90;;;;;;5073464;27;44078;-61
2022/05/05 10:54:47;;;;;;;2.42;1.60;;;22.60;45.90;;;;;;5075292;28;43799;-61
2022/05/05 10:57:27;;;;;;;1.45;1.35;;;22.70;45.80;;;;;;5067886;27;43511;-61
2022/05/05 11:00:53;;;;;;;2.65;1.80;;;22.80;45.60;;;;;;5075387;28;43456;-61
2022/05/05 11:03:20;;;;;;;2.38;2.05;;;22.90;45.60;;;;;;5042162;28;43798;-61
2022/05/05 11:05:48;;;;;;;2.17;1.65;;;22.90;45.60;;;;;;5064947;27;43482;-61
2022/05/05 11:08:17;;;;;;;1.67;1.58;;;22.90;45.50;;;;;;5069225;28;43387;-60
2022/05/05 11:13:45;;;;;;;1.95;1.75;;;23.00;45.50;;;;;;5070060;28;44045;-61
2022/05/05 11:22:20;;;;;;;3.53;1.70;;;23.10;45.50;;;;;;5070645;28;43455;-60
2022/05/05 11:24:49;;;;;;;2.85;1.63;;;23.10;45.50;;;;;;5072195;27;44035;-61
2022/05/05 11:27:25;;;;;;;2.88;1.67;;;23.10;45.80;;;;;;5069868;28;44033;-61
2022/05/05 11:29:54;;;;;;;2.38;1.52;;;23.10;46.20;;;;;;5078697;28;43421;-62
2022/05/05 11:32:30;;;;;;;1.60;1.50;;;23.10;46.10;;;;;;5075631;28;43491;-61
2022/05/05 11:34:58;;;;;;;2.08;1.70;;;23.10;46.30;;;;;;5067296;28;43584;-61
2022/05/05 11:37:28;;;;;;;2.17;1.90;;;23.00;45.90;;;;;;5068710;28;43655;-61
2022/05/05 11:39:56;;;;;;;2.10;1.60;;;23.10;45.80;;;;;;5077490;28;43586;-60
2022/05/05 11:42:23;;;;;;;2.10;1.48;;;23.10;45.80;;;;;;5074915;28;43529;-60
2022/05/05 11:44:51;;;;;;;2.08;1.70;;;23.10;45.80;;;;;;5076943;28;43800;-62
2022/05/05 11:47:20;;;;;;;1.50;1.35;;;23.10;45.80;;;;;;5070878;28;43542;-61
2022/05/05 11:49:52;;;;;;;3.05;1.50;;;23.10;45.70;;;;;;5065144;27;43543;-61
2022/05/05 11:52:22;;;;;;;1.60;1.48;;;23.10;45.70;;;;;;5061699;28;43589;-60
2022/05/05 11:54:52;;;;;;;5.07;1.73;;;23.10;45.80;;;;;;5077002;28;44694;-61
2022/05/05 11:57:33;;;;;;;3.10;1.70;;;23.00;45.90;;;;;;5079116;28;43463;-61
2022/05/05 12:02:48;;;;;;;1.63;1.52;;;23.00;46.20;;;;;;5069200;28;43415;-61
2022/05/05 12:05:18;;;;;;;1.60;1.50;;;23.00;46.20;;;;;;5080990;28;44068;-61
2022/05/05 12:07:46;;;;;;;1.70;1.60;;;23.00;46.30;;;;;;5096008;27;44022;-60
2022/05/05 12:10:15;;;;;;;1.98;1.58;;;22.90;46.50;;;;;;5068311;28;43364;-60
2022/05/05 12:12:49;;;;;;;1.95;1.77;;;22.90;46.40;;;;;;5064319;28;44123;-61
2022/05/05 12:15:20;;;;;;;1.83;1.67;;;22.90;46.40;;;;;;5078750;28;44930;-61
2022/05/05 12:17:52;;;;;;;2.22;1.65;;;22.90;46.40;;;;;;5079101;27;43437;-61
2022/05/05 12:20:21;;;;;;;2.63;1.70;;;22.80;46.20;;;;;;5077112;28;43457;-61
2022/05/05 12:23:00;;;;;;;1.83;1.73;;;22.80;46.20;;;;;;5077785;28;43474;-61
2022/05/05 12:25:28;;;;;;;2.85;1.73;;;22.80;46.10;;;;;;5077588;28;43580;-61
2022/05/05 12:27:59;;;;;;;3.72;1.75;;;22.80;46.10;;;;;;5075254;28;43815;-61
2022/05/05 12:30:37;;;;;;;1.70;1.60;;;22.80;46.20;;;;;;5070313;28;43448;-61
2022/05/05 12:33:07;;;;;;;1.95;1.60;;;22.80;46.20;;;;;;5075764;28;43526;-61
2022/05/05 12:35:38;;;;;;;;;;;22.80;46.20;;;;;;5081171;28;44956;-61
2022/05/05 12:38:08;;;;;;;1.70;1.60;;;22.80;46.40;;;;;;5062729;28;43516;-61
2022/05/05 12:40:37;;;;;;;2.55;1.60;;;22.80;46.40;;;;;;5069238;28;43440;-61
2022/05/05 12:43:08;;;;;;;1.88;1.65;;;22.80;46.40;;;;;;5079482;28;43556;-60
2022/05/05 12:45:37;;;;;;;2.13;1.70;;;22.80;46.40;;;;;;5072214;28;44729;-61
2022/05/05 12:48:07;;;;;;;1.80;1.70;;;22.80;46.40;;;;;;5068893;28;44168;-61
2022/05/05 12:50:40;;;;;;;1.83;1.73;;;22.80;46.40;;;;;;5082637;28;43408;-61
2022/05/05 13:01:32;;;;;;;2.00;1.80;;;22.80;46.50;;;;;;5083325;28;43461;-61
2022/05/05 13:04:05;;;;;;;2.42;1.65;;;22.80;46.50;;;;;;5073344;28;44144;-61
2022/05/05 13:06:35;;;;;;;1.80;1.70;;;22.80;46.50;;;;;;5069501;28;43763;-61
2022/05/05 13:09:05;;;;;;;1.60;1.50;;;22.80;46.50;;;;;;5071145;28;43578;-61
2022/05/05 13:11:33;;;;;;;1.48;1.38;;;22.70;46.40;;;;;;5079846;27;43427;-61
2022/05/05 13:14:02;;;;;;;2.25;1.90;;;22.80;46.50;;;;;;5073413;28;43527;-60
2022/05/05 13:16:31;;;;;;;1.52;1.52;;;22.80;46.40;;;;;;5071152;27;44667;-61
2022/05/05 13:19:00;;;;;;;1.63;1.52;;;22.80;46.40;;;;;;5073414;28;43390;-61
2022/05/05 13:21:29;;;;;;;2.08;1.60;;;22.80;46.40;;;;;;5079376;27;43461;-61
2022/05/05 13:23:57;;;;;;;1.90;1.70;;;22.80;46.40;;;;;;5074968;28;43649;-60
2022/05/05 13:26:25;;;;;;;3.08;1.67;;;22.80;46.50;;;;;;5070777;27;43866;-60
2022/05/05 13:28:53;;;;;;;1.70;1.60;;;22.80;46.40;;;;;;5071507;28;43683;-61
2022/05/05 13:31:20;;;;;;;1.50;1.40;;;22.90;46.40;;;;;;5079244;27;43547;-61
2022/05/05 13:33:48;;;;;;;1.67;1.58;;;22.80;46.40;;;;;;5075204;28;43474;-61
2022/05/05 13:36:15;;;;;;;1.60;1.50;;;22.80;46.40;;;;;;5071337;28;43817;-61
2022/05/05 13:38:43;;;;;;;1.60;1.50;;;22.90;46.50;;;;;;5080867;28;43725;-60
2022/05/05 13:41:32;;;;;;;1.77;1.67;;;22.90;46.50;;;;;;5072056;28;43404;-61
2022/05/05 13:44:00;;;;;;;1.90;1.67;;;22.90;46.50;;;;;;5069673;27;43627;-60
2022/05/05 13:46:29;;;;;;;2.28;1.60;;;22.90;46.50;;;;;;5080387;28;44717;-60
2022/05/05 13:48:57;;;;;;;1.65;1.55;;;22.80;46.50;;;;;;5070948;27;43951;-61
2022/05/05 13:51:24;;;;;;;1.80;1.70;;;22.80;46.50;;;;;;5073798;28;43497;-60
2022/05/05 13:53:52;;;;;;;1.70;1.60;;;22.80;46.60;;;;;;5071893;27;43465;-60
2022/05/05 13:56:20;;;;;;;1.92;1.73;;;22.80;46.70;;;;;;5080192;28;44266;-61
2022/05/05 13:58:48;;;;;;;2.38;1.90;;;22.80;46.70;;;;;;5077344;28;43416;-61